Time;durP1;ratioP1;P1;durP2;ratioP2;P2;SDS_P1;SDS_P2;PMS_P1;PMS_P2;Temp;Humidity;BMP_temperature;BMP_pressure;BME280_temperature;BME280_humidity;BME280_pressure;Samples;Min_cycle;Max_cycle;Signal;HPM_P1;HPM_P2
2021/06/12 00:02:20;;;;;;;10.65;6.53;;;;;;;14.32;77.47;101898.72;4933627;29;20059;-86
2021/06/12 00:04:48;;;;;;;9.50;6.45;;;;;;;14.31;77.68;101899.66;4931058;29;20048;-86
2021/06/12 00:07:15;;;;;;;13.50;7.00;;;;;;;14.22;77.53;101879.78;4931116;29;20103;-87
2021/06/12 00:09:46;;;;;;;14.40;6.70;;;;;;;14.25;77.92;101898.91;4930871;29;20048;-86
2021/06/12 00:12:17;;;;;;;13.90;7.00;;;;;;;14.17;77.97;101903.59;4929488;29;20075;-86
2021/06/12 00:18:08;;;;;;;15.93;7.22;;;;;;;14.20;78.04;101906.09;4899594;29;20052;-86
2021/06/12 00:21:15;;;;;;;14.38;7.07;;;;;;;14.15;78.43;101915.91;4956072;23;20036;-86
2021/06/12 00:24:15;;;;;;;10.48;7.75;;;;;;;13.82;79.49;101883.75;4922835;29;20133;-82
2021/06/12 00:26:47;;;;;;;14.40;7.93;;;;;;;13.93;79.54;101910.53;4939294;29;20532;-84
2021/06/12 00:29:48;;;;;;;14.02;7.50;;;;;;;13.87;79.60;101900.22;4938014;29;20048;-84
2021/06/12 00:32:22;;;;;;;13.40;7.55;;;;;;;13.91;79.81;101905.34;4922460;29;20056;-78
2021/06/12 00:34:52;;;;;;;16.73;7.50;;;;;;;13.99;79.63;101925.19;4937920;29;20084;-86
2021/06/12 00:37:18;;;;;;;15.00;8.52;;;;;;;13.77;79.05;101886.56;4931477;29;20048;-82
2021/06/12 00:39:46;;;;;;;18.02;8.75;;;;;;;13.92;79.45;101909.66;4931921;29;20179;-85
2021/06/12 00:42:14;;;;;;;14.80;8.82;;;;;;;13.97;79.07;101912.13;4932135;29;20052;-85
2021/06/12 00:44:43;;;;;;;16.15;8.88;;;;;;;13.83;79.12;101895.97;4932184;29;20052;-85
2021/06/12 00:47:14;;;;;;;18.02;8.68;;;;;;;13.88;79.08;101897.53;4930898;29;20028;-86
2021/06/12 00:49:51;;;;;;;16.13;8.95;;;;;;;13.88;78.89;101901.94;4938460;29;20071;-82
2021/06/12 00:52:19;;;;;;;16.08;9.38;;;;;;;13.87;78.63;101906.31;4906564;29;20062;-82
2021/06/12 00:54:48;;;;;;;14.73;9.00;;;;;;;13.89;78.54;101894.03;4934071;29;20060;-84
2021/06/12 00:57:17;;;;;;;15.68;9.07;;;;;;;13.90;78.73;101887.00;4947309;23;20051;-84
2021/06/12 00:59:52;;;;;;;15.45;9.43;;;;;;;13.89;79.01;101895.75;4932664;29;20497;-85
2021/06/12 01:02:20;;;;;;;16.98;8.80;;;;;;;13.87;78.80;101882.69;4947605;29;20065;-84
2021/06/12 01:05:17;;;;;;;15.93;9.95;;;;;;;13.86;79.27;101888.00;4947921;29;20082;-86
2021/06/12 01:07:53;;;;;;;16.55;10.00;;;;;;;13.70;79.72;101877.16;4952851;23;20059;-83
2021/06/12 01:10:30;;;;;;;14.20;9.82;;;;;;;13.77;79.88;101897.03;4928916;29;20056;-85
2021/06/12 01:13:19;;;;;;;17.73;10.85;;;;;;;13.83;79.77;101888.97;4928563;29;20103;-85
2021/06/12 01:27:51;;;;;;;20.90;11.68;;;;;;;13.63;80.80;101894.84;5195678;23;20019;-86
2021/06/12 01:30:43;;;;;;;20.10;12.15;;;;;;;13.62;80.76;101903.63;4904848;29;20052;-85
2021/06/12 01:34:00;;;;;;;19.63;12.18;;;;;;;13.66;80.71;101910.50;4931314;29;20111;-87
2021/06/12 01:36:37;;;;;;;26.70;13.70;;;;;;;13.67;80.80;101913.97;4927656;29;20092;-87
2021/06/12 01:39:13;;;;;;;19.58;13.07;;;;;;;13.65;80.81;101919.28;4929723;29;20048;-86
2021/06/12 01:41:59;;;;;;;22.20;13.57;;;;;;;13.63;80.46;101907.97;4932378;29;20116;-86
2021/06/12 01:44:46;;;;;;;18.88;13.30;;;;;;;13.74;80.40;101919.00;4931133;29;20063;-86
2021/06/12 01:47:16;;;;;;;25.15;14.95;;;;;;;13.73;80.19;101919.03;4905796;29;20355;-84
2021/06/12 01:49:43;;;;;;;20.80;15.00;;;;;;;13.71;80.15;101928.72;4902592;29;20056;-84
2021/06/12 01:52:12;;;;;;;23.85;15.52;;;;;;;13.73;80.06;101930.41;4919280;29;20048;-86
2021/06/12 01:54:40;;;;;;;28.35;16.33;;;;;;;13.52;80.15;101895.19;4919803;29;20048;-83
2021/06/12 01:57:06;;;;;;;22.13;15.90;;;;;;;13.69;79.98;101934.00;4919393;29;20048;-85
2021/06/12 01:59:33;;;;;;;24.58;16.05;;;;;;;13.59;80.44;101929.97;4917832;29;20054;-85
2021/06/12 02:02:01;;;;;;;21.80;16.08;;;;;;;13.70;80.15;101932.25;4922557;29;20052;-85
2021/06/12 02:04:29;;;;;;;24.80;17.50;;;;;;;13.69;80.11;101943.66;4922189;29;20099;-83
2021/06/12 02:07:01;;;;;;;23.98;17.77;;;;;;;13.67;80.27;101938.47;4922695;29;20139;-86
2021/06/12 02:09:29;;;;;;;29.50;17.50;;;;;;;13.68;80.11;101936.69;4922525;29;20052;-85
2021/06/12 02:11:57;;;;;;;27.67;17.65;;;;;;;13.59;80.52;101936.06;4922547;29;20103;-85
2021/06/12 02:14:24;;;;;;;25.02;17.08;;;;;;;13.54;80.41;101921.38;4905881;29;20048;-85
2021/06/12 02:16:51;;;;;;;20.90;16.25;;;;;;;13.66;80.14;101933.25;4922238;29;20104;-83
2021/06/12 02:19:18;;;;;;;27.00;17.45;;;;;;;13.60;80.35;101924.66;4922562;29;20052;-84
2021/06/12 02:21:45;;;;;;;22.83;15.32;;;;;;;13.60;80.30;101932.53;4941705;29;20044;-87
2021/06/12 02:24:13;;;;;;;21.20;15.57;;;;;;;13.64;79.95;101935.09;4942082;29;20079;-86
2021/06/12 02:26:42;;;;;;;22.30;14.45;;;;;;;13.62;80.03;101935.09;4942383;29;20409;-86
2021/06/12 02:29:12;;;;;;;22.70;15.60;;;;;;;13.56;80.01;101930.06;4941602;29;20132;-87
2021/06/12 02:31:44;;;;;;;21.88;14.85;;;;;;;13.54;80.14;101922.25;4925225;29;20052;-85
2021/06/12 02:34:10;;;;;;;33.72;20.75;;;;;;;13.46;80.07;101916.38;4959470;29;20062;-82
2021/06/12 02:36:36;;;;;;;25.00;17.10;;;;;;;13.51;80.64;101935.47;4959545;28;20055;-84
2021/06/12 02:39:05;;;;;;;30.10;18.70;;;;;;;13.27;80.96;101903.78;4947900;29;20047;-84
2021/06/12 02:41:31;;;;;;;29.65;18.83;;;;;;;13.42;81.21;101938.34;4948404;29;20047;-86
2021/06/12 02:43:57;;;;;;;28.15;18.42;;;;;;;13.36;81.19;101941.13;4953558;29;20087;-81
2021/06/12 02:46:29;;;;;;;30.05;18.15;;;;;;;13.41;81.29;101945.34;4948892;29;20055;-84
2021/06/12 02:48:59;;;;;;;24.40;16.73;;;;;;;13.41;81.18;101947.13;4939971;29;20106;-86
2021/06/12 02:51:28;;;;;;;29.40;17.77;;;;;;;13.25;81.14;101918.69;4941441;29;20055;-86
2021/06/12 02:53:57;;;;;;;24.00;16.73;;;;;;;13.25;81.40;101933.59;4940856;29;20048;-85
2021/06/12 02:56:24;;;;;;;27.80;16.90;;;;;;;13.29;81.29;101935.19;4941056;29;20049;-81
2021/06/12 02:58:56;;;;;;;28.42;17.13;;;;;;;13.21;80.97;101924.09;4940535;29;20048;-86
2021/06/12 03:01:24;;;;;;;23.35;15.77;;;;;;;13.33;81.07;101952.56;4940422;29;20095;-86
2021/06/12 03:03:52;;;;;;;26.23;17.45;;;;;;;13.27;81.20;101943.13;4940491;29;20147;-85
2021/06/12 03:06:20;;;;;;;25.02;16.48;;;;;;;13.15;81.03;101919.88;4940272;29;20052;-85
2021/06/12 03:08:49;;;;;;;23.77;15.63;;;;;;;13.31;80.97;101959.63;4940412;29;20051;-85
2021/06/12 03:11:17;;;;;;;23.00;16.70;;;;;;;13.29;81.13;101957.06;4941121;29;20048;-85
2021/06/12 03:13:44;;;;;;;27.08;16.40;;;;;;;13.32;80.77;101963.09;4943589;29;20063;-85
2021/06/12 03:16:15;;;;;;;23.95;15.73;;;;;;;13.33;80.66;101962.19;4940951;29;20103;-85
2021/06/12 03:18:44;;;;;;;23.55;16.58;;;;;;;13.20;80.75;101946.81;4940060;29;20051;-86
2021/06/12 03:21:11;;;;;;;25.33;17.00;;;;;;;13.27;80.72;101956.22;4940344;29;20059;-87
2021/06/12 03:23:38;;;;;;;24.63;15.85;;;;;;;13.33;80.63;101959.56;4939870;29;20060;-86
2021/06/12 03:26:09;;;;;;;25.23;17.40;;;;;;;13.34;80.49;101951.69;4923640;29;20515;-85
2021/06/12 03:28:35;;;;;;;27.88;17.05;;;;;;;13.31;80.50;101962.25;4940348;29;20059;-85
2021/06/12 03:31:03;;;;;;;23.83;17.58;;;;;;;13.26;80.74;101959.75;4940507;29;20055;-83
2021/06/12 03:33:30;;;;;;;24.25;17.70;;;;;;;13.20;80.21;101952.06;4940261;29;20043;-86
2021/06/12 03:35:57;;;;;;;25.80;18.02;;;;;;;13.20;80.25;101953.84;4923360;29;20056;-85
2021/06/12 03:38:23;;;;;;;27.10;18.52;;;;;;;13.28;80.45;101965.81;4931347;29;20067;-82
2021/06/12 03:40:50;;;;;;;26.83;18.55;;;;;;;13.26;80.39;101961.53;4934406;29;20052;-79
2021/06/12 03:43:17;;;;;;;24.38;17.40;;;;;;;13.25;80.65;101960.66;4939348;29;20129;-77
2021/06/12 03:45:44;;;;;;;25.08;19.45;;;;;;;13.25;80.41;101955.41;4941757;29;20063;-80
2021/06/12 03:48:12;;;;;;;29.48;19.83;;;;;;;13.25;80.39;101955.41;4928730;29;20048;-85
2021/06/12 03:50:42;;;;;;;30.25;20.75;;;;;;;13.23;80.36;101962.47;4921448;29;20044;-87
2021/06/12 03:53:09;;;;;;;31.83;20.23;;;;;;;12.84;80.42;101897.19;4921473;29;20127;-86
2021/06/12 03:55:35;;;;;;;28.98;18.83;;;;;;;13.06;80.69;101943.72;4921161;29;20143;-87
2021/06/12 03:58:02;;;;;;;33.55;19.98;;;;;;;13.13;80.59;101961.88;4921228;29;20048;-85
2021/06/12 04:00:31;;;;;;;31.50;20.50;;;;;;;13.06;80.53;101959.47;4921078;29;20044;-87
2021/06/12 04:02:57;;;;;;;29.80;19.13;;;;;;;13.16;80.55;101968.81;4919655;29;20060;-87
2021/06/12 04:05:23;;;;;;;27.88;19.27;;;;;;;13.12;80.68;101957.53;4920648;29;20052;-87
2021/06/12 04:07:49;;;;;;;32.03;19.35;;;;;;;13.08;80.63;101955.03;4920201;29;20059;-87
2021/06/12 04:10:15;;;;;;;27.65;20.20;;;;;;;13.20;80.48;101978.28;4920735;29;20048;-87
2021/06/12 04:12:41;;;;;;;27.52;19.15;;;;;;;13.25;80.15;101973.75;4920813;29;20048;-87
2021/06/12 04:15:08;;;;;;;25.40;18.40;;;;;;;13.20;80.00;101962.56;4920809;29;20063;-87
2021/06/12 04:17:34;;;;;;;26.27;18.33;;;;;;;13.04;80.00;101937.69;4921294;29;20051;-87
2021/06/12 04:20:00;;;;;;;27.23;18.10;;;;;;;13.24;80.01;101965.94;4921829;29;20052;-87
2021/06/12 04:22:31;;;;;;;27.90;18.20;;;;;;;13.29;79.83;101971.91;4923849;29;20052;-87
2021/06/12 04:24:57;;;;;;;25.80;16.48;;;;;;;13.22;79.97;101960.75;4929118;29;20048;-86
2021/06/12 04:27:23;;;;;;;26.42;14.77;;;;;;;13.34;79.48;101970.03;4936276;29;20083;-84
2021/06/12 04:29:49;;;;;;;25.42;17.08;;;;;;;13.35;79.28;101966.47;4934681;29;20048;-86
2021/06/12 04:32:15;;;;;;;23.20;16.10;;;;;;;13.39;79.37;101973.41;4934557;29;20056;-83
2021/06/12 04:34:41;;;;;;;25.92;16.60;;;;;;;13.47;79.10;101982.81;4941061;29;20080;-84
2021/06/12 04:37:08;;;;;;;21.45;15.15;;;;;;;13.48;78.77;101960.94;4947929;29;20059;-83
2021/06/12 04:39:34;;;;;;;22.60;15.43;;;;;;;13.53;78.68;101966.88;4941272;29;20481;-86
2021/06/12 04:42:00;;;;;;;24.52;15.02;;;;;;;13.61;78.37;101976.25;4939774;29;20456;-86
2021/06/12 04:44:26;;;;;;;21.63;15.13;;;;;;;13.63;78.42;101970.09;4939664;29;20067;-85
2021/06/12 04:46:52;;;;;;;22.88;14.65;;;;;;;13.67;78.21;101967.34;4939838;29;20075;-87
2021/06/12 04:49:18;;;;;;;26.30;14.07;;;;;;;13.67;77.81;101964.72;4941407;29;20503;-88
2021/06/12 04:51:44;;;;;;;20.02;12.00;;;;;;;13.73;77.63;101971.50;4923670;29;20051;-82
2021/06/12 04:54:10;;;;;;;16.63;12.07;;;;;;;13.83;77.17;101972.97;4960973;28;20074;-87
2021/06/12 04:56:38;;;;;;;18.52;12.05;;;;;;;13.86;77.06;101967.59;4958374;29;20050;-82
2021/06/12 04:59:04;;;;;;;20.92;12.90;;;;;;;13.91;76.95;101972.72;4957528;29;20047;-85
2021/06/12 05:01:30;;;;;;;16.05;11.38;;;;;;;14.05;76.27;101974.91;4945179;29;20044;-80
2021/06/12 05:03:56;;;;;;;18.25;11.75;;;;;;;14.31;75.37;101983.69;4941399;29;20469;-81
2021/06/12 05:06:22;;;;;;;17.27;11.45;;;;;;;14.61;74.23;101988.81;4941008;29;20047;-84
2021/06/12 05:08:49;;;;;;;16.65;10.00;;;;;;;14.85;73.30;101971.34;4940847;29;20382;-85
2021/06/12 05:11:15;;;;;;;20.58;11.50;;;;;;;15.16;72.23;101975.47;4941362;29;20058;-86
2021/06/12 05:13:41;;;;;;;16.35;10.93;;;;;;;15.18;71.83;101990.31;4940689;29;20048;-86
2021/06/12 05:16:07;;;;;;;14.10;10.45;;;;;;;15.36;71.70;101988.75;4941460;29;20086;-83
2021/06/12 05:18:41;;;;;;;19.77;10.63;;;;;;;15.37;71.27;101993.09;4940035;29;20557;-83
2021/06/12 05:21:13;;;;;;;15.57;10.27;;;;;;;15.19;71.87;101999.91;4940976;29;20047;-87
2021/06/12 05:23:39;;;;;;;16.50;10.48;;;;;;;14.98;72.74;102001.56;4940638;29;20480;-87
2021/06/12 05:26:06;;;;;;;14.65;8.88;;;;;;;14.80;73.23;101989.91;4923549;29;20485;-85
2021/06/12 05:28:35;;;;;;;15.85;11.00;;;;;;;14.76;73.65;102005.84;4942265;29;20119;-85
2021/06/12 05:31:03;;;;;;;19.70;11.45;;;;;;;14.76;73.68;102011.97;4944734;29;20052;-85
2021/06/12 05:33:31;;;;;;;19.55;10.55;;;;;;;14.70;73.53;101996.41;4946975;29;20055;-85
2021/06/12 05:35:58;;;;;;;13.73;9.93;;;;;;;14.90;73.19;102019.34;4943543;29;20051;-81
2021/06/12 05:38:25;;;;;;;17.05;10.10;;;;;;;15.01;72.97;102027.75;4941854;29;20125;-82
2021/06/12 05:40:52;;;;;;;14.70;9.55;;;;;;;15.00;72.80;102030.41;4925013;29;20390;-86
2021/06/12 05:43:19;;;;;;;16.10;9.10;;;;;;;15.04;72.83;102029.41;4948052;29;20056;-83
2021/06/12 05:45:45;;;;;;;19.23;9.68;;;;;;;15.08;72.53;102019.63;4947706;29;20059;-83
2021/06/12 05:48:11;;;;;;;13.60;8.75;;;;;;;15.11;72.17;102019.50;4947287;29;20048;-84
2021/06/12 05:50:38;;;;;;;14.88;8.25;;;;;;;15.29;71.65;102028.50;4946305;29;20316;-80
2021/06/12 05:53:04;;;;;;;15.02;8.82;;;;;;;15.15;71.65;102031.66;4949162;29;20083;-81
2021/06/12 05:55:30;;;;;;;16.63;7.80;;;;;;;15.18;71.90;102036.78;4947280;29;20052;-84
2021/06/12 05:57:56;;;;;;;14.32;8.70;;;;;;;15.32;71.67;102041.56;4945797;29;20051;-83
2021/06/12 06:00:22;;;;;;;15.13;8.35;;;;;;;15.37;71.64;102037.81;4941730;29;20473;-85
2021/06/12 06:02:48;;;;;;;16.35;7.82;;;;;;;15.17;71.26;102029.81;4942090;29;20047;-82
2021/06/12 06:05:14;;;;;;;11.18;7.82;;;;;;;15.28;71.19;102046.09;4941353;29;20465;-85
2021/06/12 06:07:41;;;;;;;14.93;7.85;;;;;;;15.51;70.54;102041.72;4940123;29;20048;-85
2021/06/12 06:10:07;;;;;;;12.63;7.50;;;;;;;15.71;69.97;102058.53;4939088;29;20085;-80
2021/06/12 06:12:34;;;;;;;12.75;7.25;;;;;;;15.96;69.54;102053.22;4940835;29;20048;-87
2021/06/12 06:15:01;;;;;;;14.43;7.97;;;;;;;15.84;69.50;102041.38;4924746;29;20044;-87
2021/06/12 06:17:27;;;;;;;16.48;7.97;;;;;;;15.81;69.52;102057.28;4942111;29;20052;-82
2021/06/12 06:19:53;;;;;;;16.63;7.57;;;;;;;15.75;69.52;102062.78;4925159;29;20047;-86
2021/06/12 06:22:19;;;;;;;14.52;7.60;;;;;;;15.65;70.04;102051.75;4949744;29;20059;-83
2021/06/12 06:24:45;;;;;;;14.82;7.70;;;;;;;15.76;69.63;102075.00;4953395;29;20048;-79
2021/06/12 06:27:12;;;;;;;12.70;7.68;;;;;;;15.93;69.23;102061.22;4952775;29;20044;-79
2021/06/12 06:29:37;;;;;;;11.90;7.53;;;;;;;16.05;68.94;102081.84;4944286;29;20059;-84
2021/06/12 06:32:04;;;;;;;15.43;8.70;;;;;;;16.17;68.61;102083.13;4941894;29;20051;-83
2021/06/12 06:34:30;;;;;;;14.95;7.70;;;;;;;16.21;68.32;102074.19;4941314;29;20055;-85
2021/06/12 06:36:56;;;;;;;12.57;7.55;;;;;;;16.22;68.04;102080.31;4945415;29;20151;-86
2021/06/12 06:39:22;;;;;;;16.95;7.45;;;;;;;16.16;68.62;102058.56;4942508;29;20075;-86
2021/06/12 06:41:48;;;;;;;13.15;7.30;;;;;;;16.36;68.30;102085.88;4941614;29;20052;-87
2021/06/12 06:44:15;;;;;;;12.32;6.65;;;;;;;16.33;67.80;102084.22;4942777;28;20134;-85
2021/06/12 06:46:41;;;;;;;13.60;7.88;;;;;;;16.29;67.25;102079.97;4944036;29;20098;-84
2021/06/12 06:49:07;;;;;;;14.02;7.53;;;;;;;16.36;67.68;102092.94;4946831;29;20056;-87
2021/06/12 06:51:33;;;;;;;12.40;7.50;;;;;;;16.38;67.41;102085.81;4945356;29;20487;-86
2021/06/12 06:53:59;;;;;;;10.65;6.90;;;;;;;15.93;67.75;102013.81;4945100;29;20047;-87
2021/06/12 06:56:25;;;;;;;13.35;7.97;;;;;;;16.41;67.72;102093.59;4945992;29;20054;-87
2021/06/12 06:58:52;;;;;;;12.00;7.93;;;;;;;16.58;67.68;102085.00;4946082;29;20036;-86
2021/06/12 07:01:20;;;;;;;11.32;7.25;;;;;;;16.83;66.93;102089.25;4956810;29;20047;-80
2021/06/12 07:03:46;;;;;;;14.02;7.50;;;;;;;16.71;66.60;102101.16;4962274;28;20039;-81
2021/06/12 07:06:14;;;;;;;12.18;7.68;;;;;;;16.63;66.97;102089.16;4956287;29;20058;-87
2021/06/12 07:08:40;;;;;;;16.75;8.63;;;;;;;16.64;66.93;102100.56;4959782;29;20035;-80
2021/06/12 07:11:09;;;;;;;14.30;8.15;;;;;;;16.78;67.04;102097.34;4958274;29;20047;-85
2021/06/12 07:13:37;;;;;;;11.43;6.90;;;;;;;17.01;66.43;102099.03;4947884;29;20056;-87
2021/06/12 07:16:04;;;;;;;10.57;7.20;;;;;;;17.00;66.19;102093.84;4944820;29;20048;-87
2021/06/12 07:18:30;;;;;;;15.77;7.68;;;;;;;17.18;65.38;102084.28;4944047;29;20054;-83
2021/06/12 07:20:56;;;;;;;10.93;6.45;;;;;;;17.38;64.29;102094.81;4944553;29;20142;-86
2021/06/12 07:23:22;;;;;;;11.75;6.72;;;;;;;17.39;64.41;102091.25;4944987;29;20052;-84
2021/06/12 07:25:48;;;;;;;13.75;7.07;;;;;;;17.46;64.02;102069.84;4927575;29;20044;-87
2021/06/12 07:28:15;;;;;;;13.48;6.70;;;;;;;17.76;63.22;102094.84;4944117;29;20114;-87
2021/06/12 07:30:42;;;;;;;12.88;6.85;;;;;;;17.67;63.17;102094.41;4944537;29;20100;-87
2021/06/12 07:33:10;;;;;;;14.63;6.75;;;;;;;17.55;62.80;102093.16;4944666;29;20115;-87
2021/06/12 07:35:37;;;;;;;11.23;6.38;;;;;;;17.60;63.12;102093.81;4944637;29;20059;-83
2021/06/12 07:38:05;;;;;;;14.57;7.28;;;;;;;17.49;63.07;102096.97;4945549;29;20050;-87
2021/06/12 07:40:32;;;;;;;13.40;6.63;;;;;;;17.35;63.60;102097.56;4944449;29;20048;-86
2021/06/12 07:42:58;;;;;;;15.68;7.22;;;;;;;17.29;63.51;102090.75;4944194;29;20055;-84
2021/06/12 07:45:25;;;;;;;12.02;6.40;;;;;;;17.41;63.57;102096.44;4944176;29;20053;-87
2021/06/12 07:47:51;;;;;;;12.10;6.85;;;;;;;17.70;62.71;102091.59;4944547;29;20322;-88
2021/06/12 07:50:18;;;;;;;9.88;6.40;;;;;;;17.84;62.29;102080.41;4944793;29;20071;-87
2021/06/12 07:52:44;;;;;;;11.52;6.65;;;;;;;17.80;62.13;102085.00;4944570;29;20067;-85
2021/06/12 07:55:11;;;;;;;13.65;6.43;;;;;;;17.73;62.31;102075.63;4943331;29;20138;-86
2021/06/12 07:57:38;;;;;;;11.70;6.32;;;;;;;17.81;62.08;102086.72;4942973;29;20052;-86
2021/06/12 08:00:17;;;;;;;10.15;6.20;;;;;;;17.85;61.66;102080.34;4948283;29;20052;-88
2021/06/12 08:02:45;;;;;;;12.93;6.10;;;;;;;17.87;60.67;102075.84;4933606;29;20066;-86
2021/06/12 08:05:11;;;;;;;6.97;4.75;;;;;;;17.97;58.36;102089.50;4930132;29;20055;-86
2021/06/12 08:07:38;;;;;;;11.13;5.80;;;;;;;17.87;59.42;102081.13;4945076;29;20052;-87
2021/06/12 08:10:05;;;;;;;11.32;6.18;;;;;;;18.03;59.71;102080.44;4945494;29;20055;-86
2021/06/12 08:12:32;;;;;;;11.82;6.93;;;;;;;18.11;60.26;102075.63;4951375;29;20097;-85
2021/06/12 08:14:58;;;;;;;9.27;5.80;;;;;;;18.06;60.00;102080.28;4960283;29;20051;-85
2021/06/12 08:17:24;;;;;;;11.40;5.60;;;;;;;17.96;60.17;102081.66;4960380;29;20111;-81
2021/06/12 08:19:51;;;;;;;13.65;7.53;;;;;;;17.90;60.52;102085.41;4961638;29;20047;-83
2021/06/12 08:22:20;;;;;;;13.05;8.07;;;;;;;17.86;60.87;102060.09;4955824;29;20047;-88
2021/06/12 08:24:46;;;;;;;16.92;8.32;;;;;;;18.36;59.62;102077.09;4958672;28;20040;-83
2021/06/12 08:27:14;;;;;;;11.90;7.85;;;;;;;18.56;59.63;102086.69;4954959;28;20051;-79
2021/06/12 08:29:43;;;;;;;9.57;6.00;;;;;;;18.49;57.36;102042.97;4961351;28;20031;-81
2021/06/12 08:32:12;;;;;;;10.07;5.28;;;;;;;18.71;56.92;102077.97;4945787;28;20107;-77
2021/06/12 08:34:40;;;;;;;12.98;8.52;;;;;;;18.80;57.56;102083.75;4961190;28;20091;-87
2021/06/12 08:37:09;;;;;;;11.95;7.72;;;;;;;18.69;58.18;102084.28;4955343;28;20071;-88
2021/06/12 08:39:35;;;;;;;9.88;6.10;;;;;;;18.71;57.37;102080.63;4948339;29;20047;-88
2021/06/12 08:42:06;;;;;;;9.88;5.63;;;;;;;18.56;56.01;102047.00;4947818;29;20054;-88
2021/06/12 08:44:34;;;;;;;11.95;7.30;;;;;;;18.84;55.88;102082.66;4958062;28;20067;-87
2021/06/12 08:47:00;;;;;;;13.43;8.70;;;;;;;19.05;56.40;102091.28;4943246;29;20044;-88
2021/06/12 08:49:28;;;;;;;14.85;10.02;;;;;;;18.93;57.23;102098.09;4942795;29;20511;-87
2021/06/12 08:51:55;;;;;;;14.52;9.23;;;;;;;18.87;57.26;102090.41;4943525;29;20111;-90
2021/06/12 08:54:25;;;;;;;15.48;10.02;;;;;;;18.96;57.35;102092.63;4944197;29;20054;-88
2021/06/12 08:56:55;;;;;;;14.05;10.30;;;;;;;19.05;56.65;102088.66;4944881;29;20048;-86
2021/06/12 08:59:26;;;;;;;15.13;10.02;;;;;;;19.18;55.77;102088.88;4947565;29;20161;-87
2021/06/12 09:01:55;;;;;;;13.20;9.27;;;;;;;19.32;54.44;102094.31;4959028;29;20043;-87
2021/06/12 09:04:30;;;;;;;15.65;8.80;;;;;;;19.06;55.46;102100.09;4941174;29;20032;-87
2021/06/12 09:07:20;;;;;;;15.10;9.40;;;;;;;19.44;55.08;102105.16;4959349;29;20032;-88
2021/06/12 09:09:49;;;;;;;16.05;10.32;;;;;;;19.65;54.66;102111.09;4959726;28;20147;-84
2021/06/12 09:12:19;;;;;;;14.27;9.45;;;;;;;19.34;54.99;102110.94;4940691;29;20057;-84
2021/06/12 09:15:07;;;;;;;16.38;9.98;;;;;;;19.01;55.67;102098.53;4958470;29;20039;-88
2021/06/12 09:17:38;;;;;;;15.35;10.65;;;;;;;19.10;55.90;102088.41;4948219;29;20115;-88
2021/06/12 09:20:08;;;;;;;17.23;9.88;;;;;;;19.29;55.75;102114.78;4959076;28;20060;-78
2021/06/12 09:22:35;;;;;;;14.48;9.95;;;;;;;19.21;54.95;102115.16;4949565;29;20065;-87
2021/06/12 09:25:02;;;;;;;15.27;9.88;;;;;;;18.97;55.07;102101.41;4944128;29;20054;-87
2021/06/12 09:27:29;;;;;;;11.38;9.85;;;;;;;19.18;55.13;102118.00;4943872;29;20099;-86
2021/06/12 09:29:54;;;;;;;16.38;10.23;;;;;;;19.42;54.90;102114.97;4943961;29;20048;-88
2021/06/12 09:32:26;;;;;;;14.77;8.90;;;;;;;19.45;54.16;102120.13;4943539;29;20055;-86
2021/06/12 09:35:06;;;;;;;14.70;9.07;;;;;;;19.78;52.56;102103.34;4943603;29;20055;-86
2021/06/12 09:37:33;;;;;;;12.45;8.90;;;;;;;19.91;53.10;102122.97;4944044;29;20044;-87
2021/06/12 09:40:14;;;;;;;14.13;8.43;;;;;;;20.25;52.29;102121.06;4928641;29;20048;-88
2021/06/12 09:43:06;;;;;;;12.13;8.02;;;;;;;20.31;51.05;102125.16;4947602;29;20051;-86
2021/06/12 09:45:34;;;;;;;13.98;7.07;;;;;;;20.21;50.41;102119.53;4933569;29;20044;-88
2021/06/12 09:48:12;;;;;;;11.27;6.57;;;;;;;20.22;50.09;102123.06;4928180;29;20044;-87
2021/06/12 09:50:39;;;;;;;9.77;6.35;;;;;;;20.10;50.32;102133.41;4927530;29;20059;-87
2021/06/12 09:53:13;;;;;;;9.43;6.40;;;;;;;20.34;50.33;102124.16;4944005;29;20087;-86
2021/06/12 09:55:39;;;;;;;11.00;7.93;;;;;;;20.50;51.21;102126.78;4943176;29;20052;-76
2021/06/12 09:58:06;;;;;;;10.38;6.75;;;;;;;20.71;50.10;102124.69;4938233;29;20043;-79
2021/06/12 10:00:45;;;;;;;13.10;7.68;;;;;;;20.74;50.24;102135.16;4940634;29;20489;-75
2021/06/12 10:03:22;;;;;;;11.02;7.05;;;;;;;21.00;50.39;102138.91;4939814;29;20047;-80
2021/06/12 10:06:20;;;;;;;14.90;9.00;;;;;;;21.12;49.91;102145.28;4940091;29;20081;-79
2021/06/12 10:08:49;;;;;;;12.43;7.40;;;;;;;20.99;49.87;102141.66;4939730;29;20043;-83
2021/06/12 10:11:17;;;;;;;11.75;7.85;;;;;;;20.93;50.42;102142.88;4939738;29;20054;-79
2021/06/12 10:13:45;;;;;;;14.48;8.63;;;;;;;20.85;50.44;102150.41;4938238;29;20052;-79
2021/06/12 10:16:15;;;;;;;11.73;5.65;;;;;;;20.54;50.05;102153.03;4938574;29;20052;-77
2021/06/12 10:18:45;;;;;;;12.60;7.20;;;;;;;20.70;50.46;102150.38;4939537;29;20497;-82
2021/06/12 10:21:12;;;;;;;10.90;6.38;;;;;;;21.08;49.47;102135.78;4923296;29;20393;-77
2021/06/12 10:23:40;;;;;;;12.15;7.70;;;;;;;21.29;48.98;102152.25;4926435;29;20052;-76
2021/06/12 10:26:08;;;;;;;14.90;7.93;;;;;;;21.42;49.52;102136.41;4925943;29;20044;-75
2021/06/12 10:28:35;;;;;;;13.32;7.47;;;;;;;21.82;47.96;102135.75;4941430;29;20055;-76
2021/06/12 10:31:24;;;;;;;11.30;7.95;;;;;;;21.81;48.81;102140.19;4942825;29;20060;-81
2021/06/12 10:33:52;;;;;;;11.93;7.43;;;;;;;21.49;49.04;102137.72;4941841;29;20051;-76
2021/06/12 10:36:24;;;;;;;11.93;7.75;;;;;;;21.31;49.38;102128.25;4942157;29;20406;-78
2021/06/12 10:38:51;;;;;;;15.20;8.55;;;;;;;21.32;50.74;102137.91;4925305;29;20058;-76
2021/06/12 10:41:22;;;;;;;12.88;8.38;;;;;;;21.42;50.48;102137.25;4926105;29;20122;-77
2021/06/12 10:43:51;;;;;;;14.02;7.55;;;;;;;21.56;50.00;102135.56;4942739;29;20091;-82
2021/06/12 10:46:21;;;;;;;13.32;8.00;;;;;;;21.49;50.07;102136.88;4926503;29;20424;-79
2021/06/12 10:48:57;;;;;;;15.75;8.10;;;;;;;21.09;50.00;102127.75;4925915;29;20048;-77
2021/06/12 10:51:26;;;;;;;11.60;7.45;;;;;;;21.00;50.48;102149.53;4926296;29;20058;-79
2021/06/12 10:54:07;;;;;;;13.10;7.60;;;;;;;20.77;51.17;102138.44;4943712;29;20442;-78
2021/06/12 10:56:39;;;;;;;13.75;7.95;;;;;;;21.48;49.83;102140.47;4942997;29;20047;-78
2021/06/12 10:59:09;;;;;;;13.70;7.45;;;;;;;21.99;48.49;102140.00;4943189;29;20381;-77
2021/06/12 11:01:36;;;;;;;14.43;7.68;;;;;;;22.19;47.81;102120.97;4943044;29;20052;-77
2021/06/12 11:06:41;;;;;;;12.55;7.85;;;;;;;21.94;49.51;102137.63;4942293;29;20047;-79
2021/06/12 11:09:13;;;;;;;13.05;7.90;;;;;;;21.41;48.56;102143.53;4942263;29;20047;-77
2021/06/12 11:11:43;;;;;;;10.43;6.72;;;;;;;21.62;48.67;102147.63;4944076;29;20054;-77
2021/06/12 11:14:27;;;;;;;10.95;6.57;;;;;;;21.89;47.47;102150.38;4944174;29;20052;-81
2021/06/12 11:17:12;;;;;;;13.00;6.38;;;;;;;21.51;48.18;102140.31;4947799;29;20055;-76
2021/06/12 11:19:50;;;;;;;11.15;7.55;;;;;;;21.65;48.24;102139.47;4945313;29;20054;-80
2021/06/12 11:22:36;;;;;;;11.52;5.85;;;;;;;21.71;47.52;102134.63;4945247;29;20051;-87
2021/06/12 11:25:09;;;;;;;15.18;5.90;;;;;;;22.03;46.67;102126.44;4928861;29;20055;-87
2021/06/12 11:27:45;;;;;;;9.75;5.90;;;;;;;22.00;46.26;102141.72;4949141;29;20058;-87
2021/06/12 11:30:23;;;;;;;11.43;6.93;;;;;;;22.48;45.57;102134.16;4930469;29;20159;-79
2021/06/12 11:32:59;;;;;;;8.90;5.35;;;;;;;22.51;45.00;102139.31;4941331;29;20485;-78
2021/06/12 11:35:57;;;;;;;11.00;6.68;;;;;;;22.24;47.95;102133.97;4942183;29;20058;-74
2021/06/12 11:38:38;;;;;;;11.90;6.95;;;;;;;22.09;47.85;102127.81;4941027;29;20131;-79
2021/06/12 11:41:10;;;;;;;14.57;7.45;;;;;;;21.75;48.31;102128.19;4942459;29;20401;-76
2021/06/12 11:43:36;;;;;;;11.60;6.35;;;;;;;22.16;48.03;102122.97;4942337;29;20052;-75
2021/06/12 11:46:19;;;;;;;12.20;6.45;;;;;;;22.33;47.47;102130.69;4943271;29;20482;-77